DLH8284 EBBR-EGNX
Flight info
| Callsign | DLH8284 |
|---|---|
| Flight time | 1h 1m |
| Altitude | 30000 |
| Route | DENUT L610 HEMEL |
| Aircraft | MD11/H-SDE1E2E3FGHIJ2J3J4J5M1RWXY/LB1D1 |
Departure
| Time | 2026-05-07 09:27 |
|---|---|
| Airport | Brussels Airport (EBBR) |
Arrival
| Time | 2026-05-07 10:28 |
|---|---|
| Airport | East Midlands Airport (EGNX) |
| Time | Latitude | Longitude | Altitude | Speed | Heading |
|---|---|---|---|---|---|
| 2026-05-07 08:53 | 50.90363 | 4.46077 | 143 ft | 0 kts | 335° |
| 2026-05-07 09:10 | 50.90351 | 4.46086 | 142 ft | 4 kts | 337° |
| 2026-05-07 09:10 | 50.90326 | 4.46101 | 143 ft | 4 kts | 345° |
| 2026-05-07 09:10 | 50.90300 | 4.46109 | 143 ft | 4 kts | 3° |
| 2026-05-07 09:11 | 50.90280 | 4.46104 | 143 ft | 4 kts | 43° |
| 2026-05-07 09:11 | 50.90273 | 4.46093 | 143 ft | 0 kts | 65° |
| 2026-05-07 09:15 | 50.90273 | 4.46094 | 143 ft | 1 kts | 65° |
| 2026-05-07 09:15 | 50.90288 | 4.46145 | 142 ft | 10 kts | 65° |
| 2026-05-07 09:15 | 50.90322 | 4.46263 | 141 ft | 13 kts | 65° |
| 2026-05-07 09:15 | 50.90357 | 4.46408 | 139 ft | 16 kts | 77° |
| 2026-05-07 09:16 | 50.90340 | 4.46570 | 138 ft | 15 kts | 110° |
| 2026-05-07 09:16 | 50.90301 | 4.46703 | 136 ft | 12 kts | 118° |
| 2026-05-07 09:16 | 50.90264 | 4.46817 | 136 ft | 11 kts | 116° |
| 2026-05-07 09:16 | 50.90231 | 4.46922 | 131 ft | 10 kts | 116° |
| 2026-05-07 09:17 | 50.90201 | 4.47017 | 129 ft | 9 kts | 116° |
| 2026-05-07 09:17 | 50.90174 | 4.47114 | 131 ft | 11 kts | 103° |
| 2026-05-07 09:17 | 50.90196 | 4.47246 | 128 ft | 14 kts | 67° |
| 2026-05-07 09:17 | 50.90238 | 4.47389 | 126 ft | 14 kts | 66° |
| 2026-05-07 09:18 | 50.90285 | 4.47549 | 125 ft | 17 kts | 67° |
| 2026-05-07 09:18 | 50.90344 | 4.47758 | 124 ft | 25 kts | 65° |
| 2026-05-07 09:18 | 50.90421 | 4.48022 | 124 ft | 26 kts | 66° |
| 2026-05-07 09:18 | 50.90491 | 4.48267 | 125 ft | 23 kts | 65° |
| 2026-05-07 09:19 | 50.90555 | 4.48489 | 125 ft | 21 kts | 65° |
| 2026-05-07 09:19 | 50.90614 | 4.48693 | 124 ft | 19 kts | 66° |
| 2026-05-07 09:19 | 50.90671 | 4.48892 | 123 ft | 23 kts | 65° |
| 2026-05-07 09:19 | 50.90742 | 4.49138 | 125 ft | 24 kts | 65° |
| 2026-05-07 09:20 | 50.90806 | 4.49359 | 126 ft | 21 kts | 67° |
| 2026-05-07 09:20 | 50.90856 | 4.49532 | 126 ft | 12 kts | 70° |
| 2026-05-07 09:20 | 50.90835 | 4.49639 | 127 ft | 11 kts | 124° |
| 2026-05-07 09:20 | 50.90784 | 4.49711 | 127 ft | 9 kts | 164° |
| 2026-05-07 09:21 | 50.90694 | 4.49690 | 128 ft | 19 kts | 194° |
| 2026-05-07 09:21 | 50.90531 | 4.49623 | 128 ft | 29 kts | 195° |
| 2026-05-07 09:21 | 50.90331 | 4.49542 | 132 ft | 29 kts | 194° |
| 2026-05-07 09:21 | 50.90151 | 4.49469 | 137 ft | 25 kts | 194° |
| 2026-05-07 09:22 | 50.89996 | 4.49405 | 139 ft | 21 kts | 194° |
| 2026-05-07 09:22 | 50.89870 | 4.49354 | 146 ft | 16 kts | 194° |
| 2026-05-07 09:22 | 50.89776 | 4.49316 | 152 ft | 15 kts | 194° |
| 2026-05-07 09:22 | 50.89663 | 4.49269 | 159 ft | 13 kts | 194° |
| 2026-05-07 09:23 | 50.89606 | 4.49222 | 162 ft | 7 kts | 216° |
| 2026-05-07 09:23 | 50.89558 | 4.49187 | 165 ft | 11 kts | 197° |
| 2026-05-07 09:23 | 50.89453 | 4.49143 | 170 ft | 20 kts | 194° |
| 2026-05-07 09:23 | 50.89292 | 4.49077 | 176 ft | 24 kts | 194° |
| 2026-05-07 09:24 | 50.89152 | 4.49021 | 198 ft | 18 kts | 194° |
| 2026-05-07 09:24 | 50.89040 | 4.48974 | 198 ft | 15 kts | 193° |
| 2026-05-07 09:24 | 50.88954 | 4.48939 | 205 ft | 12 kts | 195° |
| 2026-05-07 09:24 | 50.88873 | 4.48904 | 205 ft | 12 kts | 197° |
| 2026-05-07 09:25 | 50.88797 | 4.48878 | 209 ft | 10 kts | 178° |
| 2026-05-07 09:25 | 50.88752 | 4.48931 | 204 ft | 8 kts | 120° |
| 2026-05-07 09:25 | 50.88729 | 4.49035 | 200 ft | 10 kts | 103° |
| 2026-05-07 09:25 | 50.88735 | 4.49128 | 205 ft | 7 kts | 62° |
| 2026-05-07 09:26 | 50.88779 | 4.49177 | 199 ft | 8 kts | 22° |
| 2026-05-07 09:26 | 50.88810 | 4.49190 | 196 ft | 2 kts | 12° |
| 2026-05-07 09:26 | 50.88969 | 4.49253 | 198 ft | 61 kts | 14° |
| 2026-05-07 09:26 | 50.89660 | 4.49535 | 160 ft | 144 kts | 14° |
| 2026-05-07 09:27 | 50.90780 | 4.49963 | 527 ft | 172 kts | 14° |
| 2026-05-07 09:27 | 50.91990 | 4.50442 | 1403 ft | 183 kts | 11° |
| 2026-05-07 09:27 | 50.94136 | 4.48567 | 3256 ft | 189 kts | 306° |
| 2026-05-07 09:28 | 50.94883 | 4.46719 | 3942 ft | 215 kts | 303° |
| 2026-05-07 09:28 | 50.95722 | 4.44540 | 4174 ft | 243 kts | 302° |
| 2026-05-07 09:28 | 50.96651 | 4.42142 | 4442 ft | 269 kts | 302° |
| 2026-05-07 09:28 | 50.97598 | 4.39570 | 5462 ft | 262 kts | 300° |
| 2026-05-07 09:29 | 50.98497 | 4.37045 | 6626 ft | 264 kts | 298° |
| 2026-05-07 09:29 | 50.99407 | 4.34482 | 7570 ft | 269 kts | 298° |
| 2026-05-07 09:29 | 51.00330 | 4.31881 | 8503 ft | 273 kts | 298° |
| 2026-05-07 09:29 | 51.01270 | 4.29234 | 9422 ft | 277 kts | 298° |
| 2026-05-07 09:30 | 51.02226 | 4.26545 | 10240 ft | 284 kts | 298° |
| 2026-05-07 09:30 | 51.03247 | 4.23666 | 10418 ft | 315 kts | 298° |
| 2026-05-07 09:30 | 51.04371 | 4.20493 | 10556 ft | 345 kts | 298° |
| 2026-05-07 09:30 | 51.05571 | 4.17103 | 11212 ft | 354 kts | 299° |
| 2026-05-07 09:31 | 51.06784 | 4.13678 | 12099 ft | 358 kts | 299° |
| 2026-05-07 09:31 | 51.08012 | 4.10207 | 12963 ft | 362 kts | 298° |
| 2026-05-07 09:31 | 51.09253 | 4.06696 | 13800 ft | 366 kts | 298° |
| 2026-05-07 09:31 | 51.10503 | 4.03152 | 14519 ft | 370 kts | 298° |
| 2026-05-07 09:32 | 51.11767 | 3.99561 | 15224 ft | 374 kts | 298° |
| 2026-05-07 09:32 | 51.13044 | 3.95931 | 15907 ft | 378 kts | 298° |
| 2026-05-07 09:32 | 51.14330 | 3.92267 | 16595 ft | 381 kts | 298° |
| 2026-05-07 09:32 | 51.15631 | 3.88556 | 17267 ft | 385 kts | 298° |
| 2026-05-07 09:33 | 51.16942 | 3.84814 | 17917 ft | 389 kts | 298° |
| 2026-05-07 09:33 | 51.18265 | 3.81028 | 18516 ft | 393 kts | 298° |
| 2026-05-07 09:33 | 51.19600 | 3.77203 | 19064 ft | 396 kts | 298° |
| 2026-05-07 09:33 | 51.20945 | 3.73345 | 19618 ft | 399 kts | 298° |
| 2026-05-07 09:34 | 51.22298 | 3.69455 | 20162 ft | 402 kts | 298° |
| 2026-05-07 09:34 | 51.23540 | 3.65445 | 20650 ft | 404 kts | 290° |
| 2026-05-07 09:34 | 51.24375 | 3.61155 | 21185 ft | 407 kts | 284° |
| 2026-05-07 09:34 | 51.24999 | 3.56731 | 21734 ft | 410 kts | 281° |
| 2026-05-07 09:35 | 51.25552 | 3.52250 | 22286 ft | 413 kts | 281° |
| 2026-05-07 09:35 | 51.26098 | 3.47735 | 22850 ft | 416 kts | 281° |
| 2026-05-07 09:35 | 51.26659 | 3.43185 | 23416 ft | 419 kts | 281° |
| 2026-05-07 09:35 | 51.27233 | 3.38600 | 23937 ft | 422 kts | 281° |
| 2026-05-07 09:36 | 51.27816 | 3.33988 | 24445 ft | 425 kts | 281° |
| 2026-05-07 09:36 | 51.28405 | 3.29362 | 24915 ft | 428 kts | 281° |
| 2026-05-07 09:36 | 51.29004 | 3.24687 | 25443 ft | 432 kts | 281° |
| 2026-05-07 09:36 | 51.29608 | 3.19971 | 25945 ft | 435 kts | 281° |
| 2026-05-07 09:37 | 51.30216 | 3.15225 | 26451 ft | 438 kts | 281° |
| 2026-05-07 09:37 | 51.30828 | 3.10436 | 26947 ft | 441 kts | 281° |
| 2026-05-07 09:37 | 51.31441 | 3.05622 | 27444 ft | 444 kts | 281° |
| 2026-05-07 09:37 | 51.32056 | 3.00771 | 27938 ft | 447 kts | 281° |
| 2026-05-07 09:38 | 51.32673 | 2.95884 | 28419 ft | 450 kts | 281° |
| 2026-05-07 09:38 | 51.33292 | 2.90965 | 28860 ft | 453 kts | 281° |
| 2026-05-07 09:38 | 51.33914 | 2.86006 | 29293 ft | 455 kts | 281° |
| 2026-05-07 09:38 | 51.34536 | 2.81028 | 29721 ft | 457 kts | 281° |
| 2026-05-07 09:39 | 51.35149 | 2.76091 | 30008 ft | 461 kts | 281° |
| 2026-05-07 09:39 | 51.36384 | 2.65953 | 30071 ft | 466 kts | 281° |
| 2026-05-07 09:40 | 51.37628 | 2.55758 | 30073 ft | 467 kts | 281° |
| 2026-05-07 09:40 | 51.38871 | 2.45591 | 30072 ft | 467 kts | 281° |
| 2026-05-07 09:41 | 51.40114 | 2.35390 | 30073 ft | 467 kts | 281° |
| 2026-05-07 09:41 | 51.41347 | 2.25176 | 30080 ft | 467 kts | 280° |
| 2026-05-07 09:42 | 51.42583 | 2.14953 | 30079 ft | 467 kts | 281° |
| 2026-05-07 09:42 | 51.43825 | 2.04723 | 30080 ft | 467 kts | 281° |
| 2026-05-07 09:43 | 51.45048 | 1.94494 | 30080 ft | 467 kts | 280° |
| 2026-05-07 09:43 | 51.46247 | 1.84236 | 30081 ft | 469 kts | 280° |
| 2026-05-07 09:44 | 51.47437 | 1.73950 | 30083 ft | 469 kts | 280° |
| 2026-05-07 09:44 | 51.48622 | 1.63661 | 30086 ft | 469 kts | 280° |
| 2026-05-07 09:45 | 51.49791 | 1.53369 | 30086 ft | 469 kts | 280° |
| 2026-05-07 09:45 | 51.50954 | 1.43076 | 30086 ft | 469 kts | 280° |
| 2026-05-07 09:46 | 51.52108 | 1.32819 | 30086 ft | 470 kts | 279° |
| 2026-05-07 09:46 | 51.53265 | 1.22472 | 30086 ft | 471 kts | 279° |
| 2026-05-07 09:47 | 51.54408 | 1.12110 | 30086 ft | 470 kts | 279° |
| 2026-05-07 09:47 | 51.55528 | 1.01759 | 30086 ft | 470 kts | 279° |
| 2026-05-07 09:48 | 51.56645 | 0.91388 | 30078 ft | 473 kts | 279° |
| 2026-05-07 09:48 | 51.57770 | 0.80912 | 30076 ft | 480 kts | 280° |
| 2026-05-07 09:49 | 51.58903 | 0.70321 | 30075 ft | 480 kts | 279° |
| 2026-05-07 09:49 | 51.60020 | 0.59736 | 30074 ft | 479 kts | 279° |
| 2026-05-07 09:50 | 51.61116 | 0.49172 | 30075 ft | 477 kts | 279° |
| 2026-05-07 09:50 | 51.62205 | 0.38638 | 30078 ft | 478 kts | 279° |
| 2026-05-07 09:51 | 51.63293 | 0.28075 | 30079 ft | 476 kts | 279° |
| 2026-05-07 09:51 | 51.63825 | 0.22886 | 29657 ft | 469 kts | 279° |
| 2026-05-07 09:51 | 51.64368 | 0.17729 | 29064 ft | 467 kts | 282° |
| 2026-05-07 09:51 | 51.64903 | 0.14375 | 28622 ft | 466 kts | 287° |
| 2026-05-07 09:52 | 51.66023 | 0.09485 | 27949 ft | 464 kts | 292° |
| 2026-05-07 09:52 | 51.67330 | 0.04760 | 27312 ft | 460 kts | 295° |
| 2026-05-07 09:52 | 51.68698 | 0.00113 | 26675 ft | 456 kts | 295° |
| 2026-05-07 09:52 | 51.70053 | -0.04472 | 26036 ft | 452 kts | 295° |
| 2026-05-07 09:53 | 51.71382 | -0.09041 | 25430 ft | 448 kts | 294° |
| 2026-05-07 09:53 | 51.72679 | -0.13580 | 24814 ft | 444 kts | 293° |
| 2026-05-07 09:53 | 51.73948 | -0.18090 | 24203 ft | 439 kts | 293° |
| 2026-05-07 09:53 | 51.75194 | -0.22558 | 23593 ft | 434 kts | 293° |
| 2026-05-07 09:54 | 51.76377 | -0.26823 | 23123 ft | 429 kts | 293° |
| 2026-05-07 09:54 | 51.77593 | -0.31224 | 22692 ft | 427 kts | 293° |
| 2026-05-07 09:54 | 51.78796 | -0.35581 | 22298 ft | 424 kts | 293° |
| 2026-05-07 09:54 | 51.80090 | -0.39844 | 22110 ft | 422 kts | 301° |
| 2026-05-07 09:55 | 51.81904 | -0.43540 | 21692 ft | 418 kts | 315° |
| 2026-05-07 09:55 | 51.84201 | -0.46434 | 20704 ft | 419 kts | 327° |
| 2026-05-07 09:55 | 51.86723 | -0.48756 | 19902 ft | 414 kts | 331° |
| 2026-05-07 09:55 | 51.89260 | -0.50914 | 19135 ft | 409 kts | 331° |
| 2026-05-07 09:56 | 51.91753 | -0.53074 | 18397 ft | 404 kts | 330° |
| 2026-05-07 09:56 | 51.94192 | -0.55279 | 17576 ft | 398 kts | 329° |
| 2026-05-07 09:56 | 51.96578 | -0.57513 | 16733 ft | 394 kts | 328° |
| 2026-05-07 09:56 | 51.98920 | -0.59760 | 15930 ft | 390 kts | 328° |
| 2026-05-07 09:57 | 52.01232 | -0.62008 | 15157 ft | 385 kts | 328° |
| 2026-05-07 09:57 | 52.03517 | -0.64248 | 14431 ft | 381 kts | 328° |
| 2026-05-07 09:57 | 52.05777 | -0.66472 | 13711 ft | 376 kts | 328° |
| 2026-05-07 09:57 | 52.08001 | -0.68664 | 12949 ft | 372 kts | 328° |
| 2026-05-07 09:58 | 52.10203 | -0.70835 | 12192 ft | 368 kts | 328° |
| 2026-05-07 09:58 | 52.12383 | -0.72986 | 11455 ft | 365 kts | 328° |
| 2026-05-07 09:58 | 52.14517 | -0.75094 | 10770 ft | 362 kts | 328° |
| 2026-05-07 09:58 | 52.16658 | -0.77210 | 10084 ft | 359 kts | 328° |
| 2026-05-07 09:59 | 52.18752 | -0.79282 | 9812 ft | 344 kts | 328° |
| 2026-05-07 09:59 | 52.20744 | -0.81254 | 9665 ft | 326 kts | 328° |
| 2026-05-07 09:59 | 52.22641 | -0.83134 | 9518 ft | 311 kts | 328° |
| 2026-05-07 09:59 | 52.24450 | -0.84930 | 9374 ft | 297 kts | 328° |
| 2026-05-07 10:00 | 52.26175 | -0.86651 | 9207 ft | 286 kts | 328° |
| 2026-05-07 10:00 | 52.27859 | -0.88331 | 8853 ft | 282 kts | 328° |
| 2026-05-07 10:00 | 52.29523 | -0.89991 | 8469 ft | 279 kts | 328° |
| 2026-05-07 10:00 | 52.31173 | -0.91634 | 8179 ft | 275 kts | 328° |
| 2026-05-07 10:01 | 52.32822 | -0.93276 | 8086 ft | 279 kts | 328° |
| 2026-05-07 10:01 | 52.34483 | -0.94931 | 8081 ft | 279 kts | 328° |
| 2026-05-07 10:01 | 52.36145 | -0.96586 | 8077 ft | 280 kts | 328° |
| 2026-05-07 10:01 | 52.37811 | -0.98246 | 8076 ft | 280 kts | 328° |
| 2026-05-07 10:02 | 52.39471 | -0.99897 | 8077 ft | 278 kts | 330° |
| 2026-05-07 10:02 | 52.41232 | -1.01069 | 8061 ft | 273 kts | 350° |
| 2026-05-07 10:02 | 52.43133 | -1.01339 | 8061 ft | 276 kts | 359° |
| 2026-05-07 10:02 | 52.45054 | -1.01338 | 8055 ft | 276 kts | 1° |
| 2026-05-07 10:03 | 52.46977 | -1.01282 | 8050 ft | 276 kts | 1° |
| 2026-05-07 10:03 | 52.48894 | -1.01220 | 8050 ft | 276 kts | 1° |
| 2026-05-07 10:03 | 52.50817 | -1.01159 | 8046 ft | 276 kts | 2° |
| 2026-05-07 10:03 | 52.52712 | -1.01101 | 8048 ft | 276 kts | 1° |
| 2026-05-07 10:04 | 52.54631 | -1.01045 | 8047 ft | 274 kts | 1° |
| 2026-05-07 10:04 | 52.56533 | -1.00992 | 7643 ft | 274 kts | 1° |
| 2026-05-07 10:04 | 52.58425 | -1.00990 | 7261 ft | 271 kts | 355° |
| 2026-05-07 10:04 | 52.60277 | -1.01539 | 6893 ft | 270 kts | 346° |
| 2026-05-07 10:05 | 52.62084 | -1.02355 | 6520 ft | 268 kts | 344° |
| 2026-05-07 10:05 | 52.63875 | -1.03141 | 6123 ft | 266 kts | 351° |
| 2026-05-07 10:05 | 52.65703 | -1.03386 | 5750 ft | 263 kts | 360° |
| 2026-05-07 10:05 | 52.67525 | -1.03443 | 5385 ft | 259 kts | 0° |
| 2026-05-07 10:06 | 52.69286 | -1.03485 | 5042 ft | 245 kts | 0° |
| 2026-05-07 10:06 | 52.70936 | -1.03683 | 4948 ft | 239 kts | 346° |
| 2026-05-07 10:06 | 52.72363 | -1.05011 | 4960 ft | 239 kts | 314° |
| 2026-05-07 10:06 | 52.73223 | -1.07474 | 4971 ft | 261 kts | 284° |
| 2026-05-07 10:07 | 52.73452 | -1.10471 | 4976 ft | 264 kts | 272° |
| 2026-05-07 10:07 | 52.73505 | -1.13499 | 4573 ft | 264 kts | 270° |
| 2026-05-07 10:07 | 52.73546 | -1.16515 | 4176 ft | 263 kts | 270° |
| 2026-05-07 10:07 | 52.73599 | -1.19526 | 3796 ft | 262 kts | 270° |
| 2026-05-07 10:08 | 52.73650 | -1.22532 | 3407 ft | 262 kts | 270° |
| 2026-05-07 10:08 | 52.73709 | -1.25531 | 3067 ft | 260 kts | 270° |
| 2026-05-07 10:08 | 52.73770 | -1.28471 | 3000 ft | 257 kts | 270° |
| 2026-05-07 10:08 | 52.73835 | -1.31421 | 2988 ft | 256 kts | 270° |
| 2026-05-07 10:09 | 52.73894 | -1.34372 | 2992 ft | 258 kts | 270° |
| 2026-05-07 10:09 | 52.73957 | -1.37325 | 2997 ft | 258 kts | 270° |
| 2026-05-07 10:09 | 52.74025 | -1.40269 | 3011 ft | 258 kts | 270° |
| 2026-05-07 10:09 | 52.74092 | -1.43220 | 3004 ft | 256 kts | 270° |
| 2026-05-07 10:10 | 52.74245 | -1.46136 | 2983 ft | 254 kts | 283° |
| 2026-05-07 10:10 | 52.75037 | -1.48548 | 2961 ft | 228 kts | 313° |
| 2026-05-07 10:10 | 52.76180 | -1.50222 | 2991 ft | 215 kts | 320° |
| 2026-05-07 10:10 | 52.77346 | -1.51769 | 2997 ft | 216 kts | 320° |
| 2026-05-07 10:11 | 52.78518 | -1.53286 | 2816 ft | 213 kts | 320° |
| 2026-05-07 10:11 | 52.79677 | -1.54791 | 2410 ft | 211 kts | 320° |
| 2026-05-07 10:11 | 52.80828 | -1.56312 | 2049 ft | 210 kts | 321° |
| 2026-05-07 10:11 | 52.81964 | -1.57844 | 2007 ft | 211 kts | 320° |
| 2026-05-07 10:12 | 52.83104 | -1.59369 | 1990 ft | 210 kts | 324° |
| 2026-05-07 10:12 | 52.84307 | -1.60753 | 2012 ft | 211 kts | 322° |
| 2026-05-07 10:12 | 52.85488 | -1.62206 | 1972 ft | 212 kts | 333° |
| 2026-05-07 10:12 | 52.86899 | -1.62670 | 1958 ft | 209 kts | 9° |
| 2026-05-07 10:13 | 52.88122 | -1.61779 | 1968 ft | 181 kts | 47° |
| 2026-05-07 10:13 | 52.88660 | -1.60006 | 1980 ft | 172 kts | 88° |
| 2026-05-07 10:13 | 52.88498 | -1.58099 | 2027 ft | 171 kts | 107° |
| 2026-05-07 10:13 | 52.88018 | -1.56315 | 2013 ft | 171 kts | 120° |
| 2026-05-07 10:14 | 52.87451 | -1.54604 | 2017 ft | 169 kts | 120° |
| 2026-05-07 10:14 | 52.86887 | -1.52902 | 1989 ft | 167 kts | 120° |
| 2026-05-07 10:14 | 52.86139 | -1.51474 | 1961 ft | 164 kts | 144° |
| 2026-05-07 10:14 | 52.85166 | -1.50414 | 2025 ft | 169 kts | 153° |
| 2026-05-07 10:15 | 52.84147 | -1.49437 | 1979 ft | 170 kts | 141° |
| 2026-05-07 10:15 | 52.83408 | -1.48000 | 1976 ft | 162 kts | 118° |
| 2026-05-07 10:15 | 52.83112 | -1.46225 | 1952 ft | 163 kts | 96° |
| 2026-05-07 10:15 | 52.83067 | -1.44249 | 1605 ft | 171 kts | 96° |
| 2026-05-07 10:16 | 52.82970 | -1.42401 | 1094 ft | 155 kts | 96° |
| 2026-05-07 10:16 | 52.82951 | -1.40678 | 843 ft | 152 kts | 91° |
| 2026-05-07 10:16 | 52.83008 | -1.38985 | 680 ft | 141 kts | 91° |
| 2026-05-07 10:16 | 52.83041 | -1.37257 | 560 ft | 153 kts | 92° |
| 2026-05-07 10:17 | 52.83062 | -1.35551 | 375 ft | 150 kts | 92° |
| 2026-05-07 10:17 | 52.83076 | -1.33894 | 322 ft | 139 kts | 92° |
| 2026-05-07 10:17 | 52.83144 | -1.32072 | 711 ft | 178 kts | 90° |
| 2026-05-07 10:17 | 52.83187 | -1.29878 | 1479 ft | 196 kts | 92° |
| 2026-05-07 10:18 | 52.83196 | -1.27868 | 2599 ft | 162 kts | 92° |
| 2026-05-07 10:18 | 52.83211 | -1.25985 | 3394 ft | 169 kts | 94° |
| 2026-05-07 10:18 | 52.82867 | -1.24190 | 3209 ft | 161 kts | 130° |
| 2026-05-07 10:18 | 52.81885 | -1.23310 | 2999 ft | 177 kts | 175° |
| 2026-05-07 10:19 | 52.80514 | -1.23294 | 3052 ft | 212 kts | 180° |
| 2026-05-07 10:19 | 52.79015 | -1.23345 | 2992 ft | 217 kts | 180° |
| 2026-05-07 10:19 | 52.77504 | -1.23396 | 2982 ft | 216 kts | 182° |
| 2026-05-07 10:19 | 52.76063 | -1.24080 | 2982 ft | 219 kts | 211° |
| 2026-05-07 10:20 | 52.75055 | -1.25964 | 2994 ft | 225 kts | 243° |
| 2026-05-07 10:20 | 52.74508 | -1.28413 | 3006 ft | 228 kts | 250° |
| 2026-05-07 10:20 | 52.74038 | -1.30884 | 2997 ft | 229 kts | 251° |
| 2026-05-07 10:20 | 52.73557 | -1.33383 | 2998 ft | 229 kts | 250° |
| 2026-05-07 10:21 | 52.73083 | -1.35890 | 2987 ft | 229 kts | 250° |
| 2026-05-07 10:21 | 52.72610 | -1.38390 | 2984 ft | 229 kts | 251° |
| 2026-05-07 10:21 | 52.72126 | -1.40885 | 2986 ft | 228 kts | 250° |
| 2026-05-07 10:21 | 52.71650 | -1.43373 | 2991 ft | 228 kts | 251° |
| 2026-05-07 10:22 | 52.71168 | -1.45860 | 2996 ft | 227 kts | 250° |
| 2026-05-07 10:22 | 52.70694 | -1.48349 | 2985 ft | 227 kts | 253° |
| 2026-05-07 10:22 | 52.70643 | -1.50959 | 2985 ft | 231 kts | 281° |
| 2026-05-07 10:22 | 52.71355 | -1.53268 | 2989 ft | 233 kts | 312° |
| 2026-05-07 10:23 | 52.72664 | -1.54852 | 3000 ft | 236 kts | 329° |
| 2026-05-07 10:23 | 52.74107 | -1.56206 | 2995 ft | 236 kts | 330° |
| 2026-05-07 10:23 | 52.75498 | -1.57499 | 2979 ft | 225 kts | 330° |
| 2026-05-07 10:23 | 52.76829 | -1.58725 | 2989 ft | 217 kts | 330° |
| 2026-05-07 10:24 | 52.78150 | -1.59927 | 2983 ft | 216 kts | 330° |
| 2026-05-07 10:24 | 52.79477 | -1.61115 | 3005 ft | 216 kts | 332° |
| 2026-05-07 10:24 | 52.80924 | -1.61657 | 2959 ft | 214 kts | 6° |
| 2026-05-07 10:24 | 52.82295 | -1.60811 | 3014 ft | 211 kts | 38° |
| 2026-05-07 10:25 | 52.83326 | -1.59246 | 2975 ft | 193 kts | 53° |
| 2026-05-07 10:25 | 52.84065 | -1.57426 | 2979 ft | 189 kts | 65° |
| 2026-05-07 10:25 | 52.84512 | -1.55449 | 2606 ft | 182 kts | 86° |
| 2026-05-07 10:25 | 52.84307 | -1.53482 | 2229 ft | 174 kts | 115° |
| 2026-05-07 10:26 | 52.83815 | -1.51649 | 2028 ft | 169 kts | 115° |
| 2026-05-07 10:26 | 52.83352 | -1.49853 | 1995 ft | 171 kts | 112° |
| 2026-05-07 10:26 | 52.83162 | -1.47866 | 1983 ft | 191 kts | 96° |
| 2026-05-07 10:26 | 52.83025 | -1.45696 | 1799 ft | 174 kts | 101° |
| 2026-05-07 10:27 | 52.82907 | -1.43816 | 1394 ft | 155 kts | 96° |
| 2026-05-07 10:27 | 52.82921 | -1.42003 | 1095 ft | 171 kts | 90° |
| 2026-05-07 10:27 | 52.82995 | -1.40097 | 930 ft | 156 kts | 91° |
| 2026-05-07 10:27 | 52.83036 | -1.38448 | 716 ft | 136 kts | 93° |
| 2026-05-07 10:28 | 52.83041 | -1.36716 | 515 ft | 163 kts | 92° |
| 2026-05-07 10:28 | 52.83073 | -1.34812 | 354 ft | 159 kts | 92° |
| 2026-05-07 10:28 | 52.83092 | -1.33280 | 317 ft | 97 kts | 88° |
| 2026-05-07 10:28 | 52.83104 | -1.32614 | 309 ft | 28 kts | 88° |
| 2026-05-07 10:29 | 52.83110 | -1.32286 | 311 ft | 28 kts | 88° |
| 2026-05-07 10:29 | 52.83115 | -1.31997 | 314 ft | 23 kts | 88° |
| 2026-05-07 10:29 | 52.83121 | -1.31717 | 317 ft | 24 kts | 88° |
| 2026-05-07 10:30 | 52.83101 | -1.31340 | 315 ft | 10 kts | 146° |
| 2026-05-07 10:30 | 52.83036 | -1.31318 | 311 ft | 10 kts | 174° |
| 2026-05-07 10:30 | 52.82976 | -1.31343 | 312 ft | 8 kts | 225° |
| 2026-05-07 10:30 | 52.82958 | -1.31418 | 309 ft | 8 kts | 261° |
| 2026-05-07 10:31 | 52.82954 | -1.31517 | 308 ft | 8 kts | 268° |
| 2026-05-07 10:31 | 52.82953 | -1.31607 | 308 ft | 7 kts | 269° |
| 2026-05-07 10:31 | 52.82952 | -1.31682 | 308 ft | 6 kts | 268° |
| 2026-05-07 10:31 | 52.82950 | -1.31763 | 308 ft | 11 kts | 268° |
| 2026-05-07 10:32 | 52.82947 | -1.31897 | 311 ft | 12 kts | 268° |
| 2026-05-07 10:32 | 52.82944 | -1.32025 | 308 ft | 11 kts | 268° |
| 2026-05-07 10:32 | 52.82941 | -1.32139 | 308 ft | 9 kts | 268° |
| 2026-05-07 10:32 | 52.82939 | -1.32239 | 308 ft | 8 kts | 270° |
| 2026-05-07 10:33 | 52.82939 | -1.32378 | 309 ft | 19 kts | 270° |
| 2026-05-07 10:33 | 52.82934 | -1.32635 | 308 ft | 22 kts | 268° |
| 2026-05-07 10:33 | 52.82929 | -1.32877 | 310 ft | 20 kts | 268° |
| 2026-05-07 10:33 | 52.82926 | -1.33100 | 309 ft | 19 kts | 268° |
| 2026-05-07 10:34 | 52.82923 | -1.33301 | 313 ft | 16 kts | 267° |
| 2026-05-07 10:34 | 52.82918 | -1.33491 | 315 ft | 23 kts | 268° |
| 2026-05-07 10:34 | 52.82912 | -1.33834 | 312 ft | 34 kts | 268° |
| 2026-05-07 10:34 | 52.82906 | -1.34225 | 311 ft | 32 kts | 271° |
| 2026-05-07 10:35 | 52.82902 | -1.34372 | 312 ft | 7 kts | 241° |
| 2026-05-07 10:35 | 52.82850 | -1.34431 | 311 ft | 13 kts | 223° |
| 2026-05-07 10:35 | 52.82832 | -1.34575 | 311 ft | 11 kts | 267° |
| 2026-05-07 10:35 | 52.82830 | -1.34693 | 308 ft | 9 kts | 268° |
| 2026-05-07 10:36 | 52.82828 | -1.34788 | 308 ft | 8 kts | 268° |
| 2026-05-07 10:36 | 52.82816 | -1.34853 | 310 ft | 4 kts | 228° |
| 2026-05-07 10:36 | 52.82797 | -1.34865 | 311 ft | 3 kts | 194° |
| 2026-05-07 10:36 | 52.82764 | -1.34867 | 310 ft | 4 kts | 178° |
| 2026-05-07 10:37 | 52.82760 | -1.34867 | 310 ft | 0 kts | 178° |